sensor_id;sensor_type;location;lat;lon;timestamp;pressure;altitude;pressure_sealevel;temperature;humidity
56400;BME280;42298;53.638;9.876;2022-08-19T00:01:07;101041.50;;;23.87;64.42
56400;BME280;42298;53.638;9.876;2022-08-19T00:03:32;101047.56;;;23.89;64.85
56400;BME280;42298;53.638;9.876;2022-08-19T00:05:59;101032.66;;;23.85;64.10
56400;BME280;42298;53.638;9.876;2022-08-19T00:08:24;101030.28;;;23.91;64.27
56400;BME280;42298;53.638;9.876;2022-08-19T00:10:49;101028.22;;;23.84;64.44
56400;BME280;42298;53.638;9.876;2022-08-19T00:13:15;101027.84;;;23.86;64.29
56400;BME280;42298;53.638;9.876;2022-08-19T00:15:40;101022.63;;;23.88;64.12
56400;BME280;42298;53.638;9.876;2022-08-19T00:18:08;101027.81;;;23.82;64.79
56400;BME280;42298;53.638;9.876;2022-08-19T00:20:33;101016.94;;;23.77;64.37
56400;BME280;42298;53.638;9.876;2022-08-19T00:22:58;101031.81;;;23.78;64.68
56400;BME280;42298;53.638;9.876;2022-08-19T00:25:24;101034.25;;;23.79;64.82
56400;BME280;42298;53.638;9.876;2022-08-19T00:27:49;101039.44;;;23.77;64.97
56400;BME280;42298;53.638;9.876;2022-08-19T00:30:15;101037.44;;;23.81;64.58
56400;BME280;42298;53.638;9.876;2022-08-19T00:32:40;101041.91;;;23.86;64.67
56400;BME280;42298;53.638;9.876;2022-08-19T00:35:06;101031.47;;;23.86;64.72
56400;BME280;42298;53.638;9.876;2022-08-19T00:37:31;101028.22;;;23.81;64.68
56400;BME280;42298;53.638;9.876;2022-08-19T00:39:58;101021.38;;;23.82;64.78
56400;BME280;42298;53.638;9.876;2022-08-19T00:42:23;101016.13;;;23.73;64.97
56400;BME280;42298;53.638;9.876;2022-08-19T00:44:49;101028.13;;;23.67;65.03
56400;BME280;42298;53.638;9.876;2022-08-19T00:47:15;101023.66;;;23.62;65.15
56400;BME280;42298;53.638;9.876;2022-08-19T00:49:44;101024.06;;;23.61;65.41
56400;BME280;42298;53.638;9.876;2022-08-19T00:52:19;101027.28;;;23.66;64.76
56400;BME280;42298;53.638;9.876;2022-08-19T00:54:46;101012.41;;;23.59;65.33
56400;BME280;42298;53.638;9.876;2022-08-19T00:57:15;101017.28;;;23.69;64.99
56400;BME280;42298;53.638;9.876;2022-08-19T00:59:43;101009.22;;;23.60;65.24
56400;BME280;42298;53.638;9.876;2022-08-19T01:02:11;101010.00;;;23.61;65.50
56400;BME280;42298;53.638;9.876;2022-08-19T01:04:36;101010.38;;;23.59;65.48
56400;BME280;42298;53.638;9.876;2022-08-19T01:07:01;101018.06;;;23.69;65.37
56400;BME280;42298;53.638;9.876;2022-08-19T01:09:27;101013.22;;;23.66;65.34
56400;BME280;42298;53.638;9.876;2022-08-19T01:11:54;101018.47;;;23.64;65.96
56400;BME280;42298;53.638;9.876;2022-08-19T01:14:20;101005.16;;;23.54;65.89
56400;BME280;42298;53.638;9.876;2022-08-19T01:16:46;100995.06;;;23.53;65.76
56400;BME280;42298;53.638;9.876;2022-08-19T01:19:34;101013.63;;;23.65;65.77
56400;BME280;42298;53.638;9.876;2022-08-19T01:24:43;101001.16;;;23.59;65.90
56400;BME280;42298;53.638;9.876;2022-08-19T01:27:09;101002.03;;;23.70;65.89
56400;BME280;42298;53.638;9.876;2022-08-19T01:29:38;100994.72;;;23.58;66.15
56400;BME280;42298;53.638;9.876;2022-08-19T01:32:04;100974.09;;;23.40;66.24
56400;BME280;42298;53.638;9.876;2022-08-19T01:34:30;101002.72;;;23.53;66.53
56400;BME280;42298;53.638;9.876;2022-08-19T01:36:55;101001.94;;;23.56;66.31
56400;BME280;42298;53.638;9.876;2022-08-19T01:39:24;101006.41;;;23.60;66.28
56400;BME280;42298;53.638;9.876;2022-08-19T01:41:50;100977.72;;;23.41;66.89
56400;BME280;42298;53.638;9.876;2022-08-19T01:44:17;100985.75;;;23.39;66.97
56400;BME280;42298;53.638;9.876;2022-08-19T01:46:47;100979.66;;;23.30;67.04
56400;BME280;42298;53.638;9.876;2022-08-19T01:49:12;100996.94;;;23.32;67.56
56400;BME280;42298;53.638;9.876;2022-08-19T01:51:37;101002.94;;;23.30;67.82
56400;BME280;42298;53.638;9.876;2022-08-19T01:54:03;100988.06;;;23.30;67.78
56400;BME280;42298;53.638;9.876;2022-08-19T01:56:28;100988.88;;;23.30;68.04
56400;BME280;42298;53.638;9.876;2022-08-19T01:59:00;100971.53;;;23.21;68.22
56400;BME280;42298;53.638;9.876;2022-08-19T02:01:27;100971.91;;;23.23;67.83
56400;BME280;42298;53.638;9.876;2022-08-19T02:03:53;100969.06;;;23.16;68.39
56400;BME280;42298;53.638;9.876;2022-08-19T02:06:19;100977.53;;;23.23;68.41
56400;BME280;42298;53.638;9.876;2022-08-19T02:08:45;100970.66;;;23.17;68.49
56400;BME280;42298;53.638;9.876;2022-08-19T02:11:19;100970.28;;;23.15;68.50
56400;BME280;42298;53.638;9.876;2022-08-19T02:13:45;100967.81;;;23.10;68.50
56400;BME280;42298;53.638;9.876;2022-08-19T02:16:11;100959.78;;;23.09;68.72
56400;BME280;42298;53.638;9.876;2022-08-19T02:18:36;100967.03;;;23.13;68.95
56400;BME280;42298;53.638;9.876;2022-08-19T02:21:01;100967.50;;;23.22;68.48
56400;BME280;42298;53.638;9.876;2022-08-19T02:23:28;100965.47;;;23.19;68.67
56400;BME280;42298;53.638;9.876;2022-08-19T02:25:53;100963.00;;;23.14;68.63
56400;BME280;42298;53.638;9.876;2022-08-19T02:28:18;100963.06;;;23.18;68.83
56400;BME280;42298;53.638;9.876;2022-08-19T02:30:44;100957.03;;;23.19;68.46
56400;BME280;42298;53.638;9.876;2022-08-19T02:33:10;100957.38;;;23.11;68.77
56400;BME280;42298;53.638;9.876;2022-08-19T02:35:35;100960.63;;;23.16;68.92
56400;BME280;42298;53.638;9.876;2022-08-19T02:38:01;100953.03;;;23.20;68.57
56400;BME280;42298;53.638;9.876;2022-08-19T02:40:49;100947.41;;;23.17;68.96
56400;BME280;42298;53.638;9.876;2022-08-19T02:43:17;100951.38;;;23.12;68.89
56400;BME280;42298;53.638;9.876;2022-08-19T02:45:42;100940.13;;;23.12;68.86
56400;BME280;42298;53.638;9.876;2022-08-19T02:48:07;100947.34;;;23.13;68.54
56400;BME280;42298;53.638;9.876;2022-08-19T02:50:37;100944.16;;;23.15;68.82
56400;BME280;42298;53.638;9.876;2022-08-19T02:53:03;100955.34;;;23.08;68.72
56400;BME280;42298;53.638;9.876;2022-08-19T02:55:28;100954.09;;;23.02;68.97
56400;BME280;42298;53.638;9.876;2022-08-19T02:57:53;100954.09;;;23.02;69.24
56400;BME280;42298;53.638;9.876;2022-08-19T03:00:19;100953.22;;;22.94;69.20
56400;BME280;42298;53.638;9.876;2022-08-19T03:02:45;100952.88;;;23.03;69.03
56400;BME280;42298;53.638;9.876;2022-08-19T03:05:12;100956.09;;;23.01;69.07
56400;BME280;42298;53.638;9.876;2022-08-19T03:07:39;100957.25;;;22.97;69.09
56400;BME280;42298;53.638;9.876;2022-08-19T03:10:05;100966.56;;;23.04;68.42
56400;BME280;42298;53.638;9.876;2022-08-19T03:12:30;100961.31;;;23.03;68.63
56400;BME280;42298;53.638;9.876;2022-08-19T03:14:56;100963.41;;;23.09;68.61
56400;BME280;42298;53.638;9.876;2022-08-19T03:17:21;100960.97;;;23.08;68.36
56400;BME280;42298;53.638;9.876;2022-08-19T03:19:47;100958.94;;;23.05;68.71
56400;BME280;42298;53.638;9.876;2022-08-19T03:22:12;100961.75;;;23.05;68.88
56400;BME280;42298;53.638;9.876;2022-08-19T03:24:38;100962.53;;;23.05;69.02
56400;BME280;42298;53.638;9.876;2022-08-19T03:27:03;100964.94;;;23.03;69.28
56400;BME280;42298;53.638;9.876;2022-08-19T03:29:30;100956.44;;;22.96;69.15
56400;BME280;42298;53.638;9.876;2022-08-19T03:31:58;100967.28;;;22.98;69.19
56400;BME280;42298;53.638;9.876;2022-08-19T03:34:26;100956.38;;;22.89;69.72
56400;BME280;42298;53.638;9.876;2022-08-19T03:36:54;100964.03;;;22.92;69.91
56400;BME280;42298;53.638;9.876;2022-08-19T03:39:20;100968.06;;;22.95;69.67
56400;BME280;42298;53.638;9.876;2022-08-19T03:41:48;100978.94;;;23.00;69.19
56400;BME280;42298;53.638;9.876;2022-08-19T03:44:21;100968.88;;;22.95;69.56
56400;BME280;42298;53.638;9.876;2022-08-19T03:46:50;100989.81;;;23.01;69.33
56400;BME280;42298;53.638;9.876;2022-08-19T03:49:16;100980.56;;;23.01;69.14
56400;BME280;42298;53.638;9.876;2022-08-19T03:51:42;100994.22;;;23.02;69.23
56400;BME280;42298;53.638;9.876;2022-08-19T03:54:12;100995.75;;;22.96;69.45
56400;BME280;42298;53.638;9.876;2022-08-19T03:56:39;100993.78;;;22.97;69.41
56400;BME280;42298;53.638;9.876;2022-08-19T03:59:08;100990.16;;;22.96;69.68
56400;BME280;42298;53.638;9.876;2022-08-19T04:01:34;100994.53;;;22.94;69.45
56400;BME280;42298;53.638;9.876;2022-08-19T04:04:00;100986.84;;;22.87;69.82
56400;BME280;42298;53.638;9.876;2022-08-19T04:06:28;100998.09;;;22.87;69.77
56400;BME280;42298;53.638;9.876;2022-08-19T04:08:56;100989.97;;;22.79;70.08
56400;BME280;42298;53.638;9.876;2022-08-19T04:11:24;100979.84;;;22.67;70.57
56400;BME280;42298;53.638;9.876;2022-08-19T04:13:52;100979.41;;;22.65;70.35
56400;BME280;42298;53.638;9.876;2022-08-19T04:16:18;100981.03;;;22.66;70.45
56400;BME280;42298;53.638;9.876;2022-08-19T04:18:46;100992.19;;;22.59;71.08
56400;BME280;42298;53.638;9.876;2022-08-19T04:21:17;100997.88;;;22.66;70.95
56400;BME280;42298;53.638;9.876;2022-08-19T04:23:42;101003.47;;;22.66;71.12
56400;BME280;42298;53.638;9.876;2022-08-19T04:26:15;101015.66;;;22.77;70.39
56400;BME280;42298;53.638;9.876;2022-08-19T04:28:44;101018.13;;;22.82;70.05
56400;BME280;42298;53.638;9.876;2022-08-19T04:31:24;101019.00;;;22.90;69.54
56400;BME280;42298;53.638;9.876;2022-08-19T04:33:57;101024.72;;;23.00;69.57
56400;BME280;42298;53.638;9.876;2022-08-19T04:36:25;101018.28;;;23.00;69.41
56400;BME280;42298;53.638;9.876;2022-08-19T04:38:54;101033.16;;;23.00;69.96
56400;BME280;42298;53.638;9.876;2022-08-19T04:41:20;101027.91;;;22.99;69.82
56400;BME280;42298;53.638;9.876;2022-08-19T04:44:04;101029.09;;;22.98;70.26
56400;BME280;42298;53.638;9.876;2022-08-19T04:46:30;101020.16;;;22.89;70.03
56400;BME280;42298;53.638;9.876;2022-08-19T04:48:57;101032.66;;;22.91;69.89
56400;BME280;42298;53.638;9.876;2022-08-19T04:51:23;101042.34;;;22.97;70.06
56400;BME280;42298;53.638;9.876;2022-08-19T04:53:49;101031.50;;;22.99;69.58
56400;BME280;42298;53.638;9.876;2022-08-19T04:56:16;101038.34;;;22.98;69.95
56400;BME280;42298;53.638;9.876;2022-08-19T04:58:44;101025.84;;;22.92;69.73
56400;BME280;42298;53.638;9.876;2022-08-19T05:01:22;101032.28;;;22.96;70.02
56400;BME280;42298;53.638;9.876;2022-08-19T05:03:49;101037.13;;;22.99;70.12
56400;BME280;42298;53.638;9.876;2022-08-19T05:06:17;101041.56;;;23.00;70.01
56400;BME280;42298;53.638;9.876;2022-08-19T05:08:43;101036.69;;;22.94;70.21
56400;BME280;42298;53.638;9.876;2022-08-19T05:11:15;101031.41;;;22.89;70.64
56400;BME280;42298;53.638;9.876;2022-08-19T05:13:43;101033.03;;;22.90;70.55
56400;BME280;42298;53.638;9.876;2022-08-19T05:16:10;101041.47;;;22.90;70.79
56400;BME280;42298;53.638;9.876;2022-08-19T05:18:38;101047.44;;;22.85;70.49
56400;BME280;42298;53.638;9.876;2022-08-19T05:21:23;101038.94;;;22.81;70.79
56400;BME280;42298;53.638;9.876;2022-08-19T05:24:07;101039.44;;;22.90;71.43
56400;BME280;42298;53.638;9.876;2022-08-19T05:26:41;101042.34;;;22.97;70.83
56400;BME280;42298;53.638;9.876;2022-08-19T05:29:07;101047.09;;;22.93;71.45
56400;BME280;42298;53.638;9.876;2022-08-19T05:31:34;101053.16;;;22.95;71.44
56400;BME280;42298;53.638;9.876;2022-08-19T05:34:00;101049.91;;;22.93;71.17
56400;BME280;42298;53.638;9.876;2022-08-19T05:36:27;101049.97;;;22.97;71.78
56400;BME280;42298;53.638;9.876;2022-08-19T05:38:53;101050.34;;;22.95;71.26
56400;BME280;42298;53.638;9.876;2022-08-19T05:41:20;101066.44;;;22.98;71.64
56400;BME280;42298;53.638;9.876;2022-08-19T05:43:46;101054.69;;;22.89;71.21
56400;BME280;42298;53.638;9.876;2022-08-19T05:46:19;101053.03;;;22.85;71.89
56400;BME280;42298;53.638;9.876;2022-08-19T05:48:45;101046.59;;;22.84;71.96
56400;BME280;42298;53.638;9.876;2022-08-19T05:51:11;101042.25;;;22.87;71.45
56400;BME280;42298;53.638;9.876;2022-08-19T05:53:37;101056.72;;;22.92;71.76
56400;BME280;42298;53.638;9.876;2022-08-19T05:56:13;101045.94;;;22.94;71.33
56400;BME280;42298;53.638;9.876;2022-08-19T05:58:41;101039.94;;;22.99;71.58
56400;BME280;42298;53.638;9.876;2022-08-19T06:01:15;101041.19;;;23.02;71.38
56400;BME280;42298;53.638;9.876;2022-08-19T06:03:41;101046.75;;;22.98;71.63
56400;BME280;42298;53.638;9.876;2022-08-19T06:06:09;101031.00;;;22.87;71.79
56400;BME280;42298;53.638;9.876;2022-08-19T06:08:35;101017.72;;;22.84;71.54
56400;BME280;42298;53.638;9.876;2022-08-19T06:13:48;101038.00;;;23.03;71.19
56400;BME280;42298;53.638;9.876;2022-08-19T06:16:15;101040.81;;;23.07;71.37
56400;BME280;42298;53.638;9.876;2022-08-19T06:18:51;101040.81;;;23.07;71.17
56400;BME280;42298;53.638;9.876;2022-08-19T06:21:18;101031.06;;;22.94;71.53
56400;BME280;42298;53.638;9.876;2022-08-19T06:23:44;101025.50;;;22.97;71.01
56400;BME280;42298;53.638;9.876;2022-08-19T06:26:14;101046.91;;;23.12;70.51
56400;BME280;42298;53.638;9.876;2022-08-19T06:28:40;101053.69;;;23.08;71.31
56400;BME280;42298;53.638;9.876;2022-08-19T06:31:16;101044.88;;;23.09;71.12
56400;BME280;42298;53.638;9.876;2022-08-19T06:33:43;101053.41;;;23.23;70.54
56400;BME280;42298;53.638;9.876;2022-08-19T06:36:24;101039.84;;;23.25;70.07
56400;BME280;42298;53.638;9.876;2022-08-19T06:39:18;101053.88;;;23.25;70.56
56400;BME280;42298;53.638;9.876;2022-08-19T06:41:46;101048.19;;;23.22;70.73
56400;BME280;42298;53.638;9.876;2022-08-19T06:44:12;101061.94;;;23.27;70.88
56400;BME280;42298;53.638;9.876;2022-08-19T06:46:40;101040.22;;;23.24;70.63
56400;BME280;42298;53.638;9.876;2022-08-19T06:49:05;101029.63;;;23.10;70.71
56400;BME280;42298;53.638;9.876;2022-08-19T06:51:31;101052.28;;;23.24;70.19
56400;BME280;42298;53.638;9.876;2022-08-19T06:53:57;101042.56;;;23.22;70.08
56400;BME280;42298;53.638;9.876;2022-08-19T06:56:27;101042.25;;;23.27;69.69
56400;BME280;42298;53.638;9.876;2022-08-19T06:59:07;101058.78;;;23.35;69.71
56400;BME280;42298;53.638;9.876;2022-08-19T07:01:37;101054.03;;;23.39;69.34
56400;BME280;42298;53.638;9.876;2022-08-19T07:04:05;101056.44;;;23.41;69.09
56400;BME280;42298;53.638;9.876;2022-08-19T07:06:30;101047.53;;;23.35;69.09
56400;BME280;42298;53.638;9.876;2022-08-19T07:08:57;101037.44;;;23.27;69.43
56400;BME280;42298;53.638;9.876;2022-08-19T07:11:23;101056.41;;;23.37;68.93
56400;BME280;42298;53.638;9.876;2022-08-19T07:13:50;101050.44;;;23.46;68.71
56400;BME280;42298;53.638;9.876;2022-08-19T07:16:18;101047.28;;;23.51;68.50
56400;BME280;42298;53.638;9.876;2022-08-19T07:18:47;101040.41;;;23.45;68.41
56400;BME280;42298;53.638;9.876;2022-08-19T07:21:22;101055.31;;;23.52;68.25
56400;BME280;42298;53.638;9.876;2022-08-19T07:23:50;101050.91;;;23.51;68.55
56400;BME280;42298;53.638;9.876;2022-08-19T07:26:22;101049.75;;;23.56;67.92
56400;BME280;42298;53.638;9.876;2022-08-19T07:28:49;101034.72;;;23.38;68.32
56400;BME280;42298;53.638;9.876;2022-08-19T07:31:22;101063.03;;;23.59;68.32
56400;BME280;42298;53.638;9.876;2022-08-19T07:33:50;101057.00;;;23.60;67.91
56400;BME280;42298;53.638;9.876;2022-08-19T07:36:18;101071.50;;;23.69;67.38
56400;BME280;42298;53.638;9.876;2022-08-19T07:38:47;101074.78;;;23.75;67.17
56400;BME280;42298;53.638;9.876;2022-08-19T07:41:16;101069.91;;;23.68;66.68
56400;BME280;42298;53.638;9.876;2022-08-19T07:43:43;101076.78;;;23.74;67.02
56400;BME280;42298;53.638;9.876;2022-08-19T07:46:09;101080.06;;;23.83;66.62
56400;BME280;42298;53.638;9.876;2022-08-19T07:48:34;101077.69;;;23.85;66.32
56400;BME280;42298;53.638;9.876;2022-08-19T07:51:03;101080.03;;;23.80;66.59
56400;BME280;42298;53.638;9.876;2022-08-19T07:53:30;101090.50;;;23.79;66.73
56400;BME280;42298;53.638;9.876;2022-08-19T07:55:56;101093.31;;;23.79;66.89
56400;BME280;42298;53.638;9.876;2022-08-19T07:58:28;101099.75;;;23.83;66.44
56400;BME280;42298;53.638;9.876;2022-08-19T08:00:54;101107.00;;;23.81;66.65
56400;BME280;42298;53.638;9.876;2022-08-19T08:03:21;101103.34;;;23.80;66.28
56400;BME280;42298;53.638;9.876;2022-08-19T08:06:07;101099.28;;;23.74;66.61
56400;BME280;42298;53.638;9.876;2022-08-19T08:08:50;101110.59;;;23.78;66.83
56400;BME280;42298;53.638;9.876;2022-08-19T08:11:34;101110.09;;;23.69;66.84
56400;BME280;42298;53.638;9.876;2022-08-19T08:14:01;101107.22;;;23.62;66.89
56400;BME280;42298;53.638;9.876;2022-08-19T08:16:26;101111.28;;;23.64;66.90
56400;BME280;42298;53.638;9.876;2022-08-19T08:18:55;101096.78;;;23.62;66.60
56400;BME280;42298;53.638;9.876;2022-08-19T08:21:20;101121.06;;;23.81;66.10
56400;BME280;42298;53.638;9.876;2022-08-19T08:23:45;101113.34;;;23.74;66.09
56400;BME280;42298;53.638;9.876;2022-08-19T08:26:11;101128.66;;;23.80;66.32
56400;BME280;42298;53.638;9.876;2022-08-19T08:28:38;101130.22;;;23.74;66.37
56400;BME280;42298;53.638;9.876;2022-08-19T08:31:03;101133.88;;;23.78;66.38
56400;BME280;42298;53.638;9.876;2022-08-19T08:33:29;101138.78;;;23.88;66.44
56400;BME280;42298;53.638;9.876;2022-08-19T08:35:55;101138.38;;;23.86;66.30
56400;BME280;42298;53.638;9.876;2022-08-19T08:38:21;101126.63;;;23.77;66.01
56400;BME280;42298;53.638;9.876;2022-08-19T08:40:49;101133.25;;;23.95;66.17
56400;BME280;42298;53.638;9.876;2022-08-19T08:43:33;101146.50;;;23.95;66.03
56400;BME280;42298;53.638;9.876;2022-08-19T08:46:13;101138.81;;;23.92;66.20
56400;BME280;42298;53.638;9.876;2022-08-19T08:49:25;101133.25;;;23.95;66.23
56400;BME280;42298;53.638;9.876;2022-08-19T08:51:38;101140.16;;;24.08;65.41
56400;BME280;42298;53.638;9.876;2022-08-19T08:54:07;101135.75;;;24.07;65.51
56400;BME280;42298;53.638;9.876;2022-08-19T08:56:33;101128.84;;;23.98;65.62
56400;BME280;42298;53.638;9.876;2022-08-19T08:59:15;101128.78;;;23.94;65.22
56400;BME280;42298;53.638;9.876;2022-08-19T09:01:42;101131.59;;;23.94;65.70
56400;BME280;42298;53.638;9.876;2022-08-19T09:04:09;101133.25;;;23.95;65.87
56400;BME280;42298;53.638;9.876;2022-08-19T09:07:00;101132.09;;;24.03;65.59
56400;BME280;42298;53.638;9.876;2022-08-19T09:09:35;101130.13;;;24.07;65.40
56400;BME280;42298;53.638;9.876;2022-08-19T09:12:25;101137.44;;;24.19;65.06
56400;BME280;42298;53.638;9.876;2022-08-19T09:14:58;101130.63;;;24.20;65.21
56400;BME280;42298;53.638;9.876;2022-08-19T09:17:28;101137.03;;;24.20;64.83
56400;BME280;42298;53.638;9.876;2022-08-19T09:20:00;101149.06;;;24.17;64.89
56400;BME280;42298;53.638;9.876;2022-08-19T09:22:30;101110.28;;;23.93;65.17
56400;BME280;42298;53.638;9.876;2022-08-19T09:24:55;101147.50;;;24.23;65.35
56400;BME280;42298;53.638;9.876;2022-08-19T09:27:23;101151.22;;;24.34;65.08
56400;BME280;42298;53.638;9.876;2022-08-19T09:29:52;101143.16;;;24.33;64.69
56400;BME280;42298;53.638;9.876;2022-08-19T09:32:19;101140.69;;;24.28;65.30
56400;BME280;42298;53.638;9.876;2022-08-19T09:34:45;101118.94;;;24.18;65.28
56400;BME280;42298;53.638;9.876;2022-08-19T09:37:10;101133.03;;;24.25;65.26
56400;BME280;42298;53.638;9.876;2022-08-19T09:39:36;101125.38;;;24.22;65.65
56400;BME280;42298;53.638;9.876;2022-08-19T09:42:02;101121.38;;;24.26;65.26
56400;BME280;42298;53.638;9.876;2022-08-19T09:44:28;101118.25;;;24.38;65.12
56400;BME280;42298;53.638;9.876;2022-08-19T09:46:54;101103.78;;;24.37;65.07
56400;BME280;42298;53.638;9.876;2022-08-19T09:49:20;101091.66;;;24.29;65.11
56400;BME280;42298;53.638;9.876;2022-08-19T09:51:50;101110.28;;;24.51;64.33
56400;BME280;42298;53.638;9.876;2022-08-19T09:54:15;101121.56;;;24.55;64.68
56400;BME280;42298;53.638;9.876;2022-08-19T09:56:40;101121.56;;;24.55;64.42
56400;BME280;42298;53.638;9.876;2022-08-19T09:59:06;101118.72;;;24.51;65.21
56400;BME280;42298;53.638;9.876;2022-08-19T10:01:32;101129.63;;;24.60;65.49
56400;BME280;42298;53.638;9.876;2022-08-19T10:03:59;101137.25;;;24.56;65.49
56400;BME280;42298;53.638;9.876;2022-08-19T10:06:27;101136.06;;;24.60;65.42
56400;BME280;42298;53.638;9.876;2022-08-19T10:08:55;101137.66;;;24.61;65.29
56400;BME280;42298;53.638;9.876;2022-08-19T10:11:21;101142.91;;;24.63;65.67
56400;BME280;42298;53.638;9.876;2022-08-19T10:13:47;101146.22;;;24.72;65.33
56400;BME280;42298;53.638;9.876;2022-08-19T10:16:16;101115.63;;;24.70;64.96
56400;BME280;42298;53.638;9.876;2022-08-19T10:18:43;101139.34;;;24.73;64.87
56400;BME280;42298;53.638;9.876;2022-08-19T10:21:24;101145.38;;;24.71;65.66
56400;BME280;42298;53.638;9.876;2022-08-19T10:23:51;101143.72;;;24.63;65.31
56400;BME280;42298;53.638;9.876;2022-08-19T10:26:23;101140.50;;;24.61;65.13
56400;BME280;42298;53.638;9.876;2022-08-19T10:29:01;101144.88;;;24.55;65.17
56400;BME280;42298;53.638;9.876;2022-08-19T10:31:29;101139.19;;;24.45;65.48
56400;BME280;42298;53.638;9.876;2022-08-19T10:33:56;101132.00;;;24.47;65.75
56400;BME280;42298;53.638;9.876;2022-08-19T10:36:42;101132.81;;;24.58;65.10
56400;BME280;42298;53.638;9.876;2022-08-19T10:39:09;101140.91;;;24.63;65.46
56400;BME280;42298;53.638;9.876;2022-08-19T10:41:37;101134.50;;;24.70;64.96
56400;BME280;42298;53.638;9.876;2022-08-19T10:44:06;101131.78;;;24.91;64.66
56400;BME280;42298;53.638;9.876;2022-08-19T10:46:34;101137.06;;;24.99;64.32
56400;BME280;42298;53.638;9.876;2022-08-19T10:49:01;101130.63;;;25.06;64.09
56400;BME280;42298;53.638;9.876;2022-08-19T10:51:27;101128.63;;;25.13;63.08
56400;BME280;42298;53.638;9.876;2022-08-19T10:54:11;101124.25;;;25.23;63.33
56400;BME280;42298;53.638;9.876;2022-08-19T10:56:36;101129.53;;;25.45;62.94
56400;BME280;42298;53.638;9.876;2022-08-19T10:59:23;101129.97;;;25.58;62.57
56400;BME280;42298;53.638;9.876;2022-08-19T11:01:51;101115.44;;;25.70;61.70
56400;BME280;42298;53.638;9.876;2022-08-19T11:04:18;101125.09;;;25.97;61.32
56400;BME280;42298;53.638;9.876;2022-08-19T11:06:46;101112.22;;;26.21;60.09
56400;BME280;42298;53.638;9.876;2022-08-19T11:09:21;101121.03;;;26.40;60.17
56400;BME280;42298;53.638;9.876;2022-08-19T11:11:49;101123.41;;;26.56;58.90
56400;BME280;42298;53.638;9.876;2022-08-19T11:14:16;101112.94;;;26.46;59.07
56400;BME280;42298;53.638;9.876;2022-08-19T11:16:43;101119.38;;;26.57;59.13
56400;BME280;42298;53.638;9.876;2022-08-19T11:19:10;101122.59;;;26.66;58.73
56400;BME280;42298;53.638;9.876;2022-08-19T11:21:39;101126.63;;;26.54;58.97
56400;BME280;42298;53.638;9.876;2022-08-19T11:24:07;101127.81;;;26.71;58.73
56400;BME280;42298;53.638;9.876;2022-08-19T11:26:34;101131.38;;;26.92;58.90
56400;BME280;42298;53.638;9.876;2022-08-19T11:29:00;101123.59;;;27.07;58.46
56400;BME280;42298;53.638;9.876;2022-08-19T11:31:32;101118.72;;;27.11;56.80
56400;BME280;42298;53.638;9.876;2022-08-19T11:33:59;101125.59;;;27.10;57.50
56400;BME280;42298;53.638;9.876;2022-08-19T11:36:25;101114.31;;;27.06;57.22
56400;BME280;42298;53.638;9.876;2022-08-19T11:38:51;101123.09;;;27.26;56.82
56400;BME280;42298;53.638;9.876;2022-08-19T11:41:19;101122.28;;;27.29;56.43
56400;BME280;42298;53.638;9.876;2022-08-19T11:43:45;101132.81;;;27.28;56.73
56400;BME280;42298;53.638;9.876;2022-08-19T11:46:14;101125.84;;;27.40;56.14
56400;BME280;42298;53.638;9.876;2022-08-19T11:48:40;101116.66;;;27.25;56.45
56400;BME280;42298;53.638;9.876;2022-08-19T11:51:11;101121.59;;;27.07;56.90
56400;BME280;42298;53.638;9.876;2022-08-19T11:53:37;101116.75;;;27.04;56.84
56400;BME280;42298;53.638;9.876;2022-08-19T11:56:04;101119.53;;;27.15;56.65
56400;BME280;42298;53.638;9.876;2022-08-19T11:58:30;101115.03;;;27.24;56.74
56400;BME280;42298;53.638;9.876;2022-08-19T12:00:55;101115.28;;;27.47;56.56
56400;BME280;42298;53.638;9.876;2022-08-19T12:03:22;101121.28;;;27.60;55.85
56400;BME280;42298;53.638;9.876;2022-08-19T12:05:47;101125.72;;;27.61;55.65
56400;BME280;42298;53.638;9.876;2022-08-19T12:08:13;101111.91;;;27.66;55.49
56400;BME280;42298;53.638;9.876;2022-08-19T12:10:39;101117.13;;;27.71;54.97
56400;BME280;42298;53.638;9.876;2022-08-19T12:13:06;101105.03;;;27.67;54.55
56400;BME280;42298;53.638;9.876;2022-08-19T12:15:38;101113.47;;;27.74;54.86
56400;BME280;42298;53.638;9.876;2022-08-19T12:18:05;101108.91;;;27.84;55.28
56400;BME280;42298;53.638;9.876;2022-08-19T12:20:30;101087.88;;;27.88;54.85
56400;BME280;42298;53.638;9.876;2022-08-19T12:22:56;101108.31;;;28.07;54.75
56400;BME280;42298;53.638;9.876;2022-08-19T12:25:21;101092.56;;;28.06;54.25
56400;BME280;42298;53.638;9.876;2022-08-19T12:27:47;101105.50;;;28.07;54.37
56400;BME280;42298;53.638;9.876;2022-08-19T12:30:13;101115.97;;;28.13;54.46
56400;BME280;42298;53.638;9.876;2022-08-19T12:32:39;101119.19;;;28.15;53.98
56400;BME280;42298;53.638;9.876;2022-08-19T12:35:05;101115.53;;;28.15;53.96
56400;BME280;42298;53.638;9.876;2022-08-19T12:37:31;101123.94;;;28.25;54.03
56400;BME280;42298;53.638;9.876;2022-08-19T12:39:57;101102.34;;;27.98;53.96
56400;BME280;42298;53.638;9.876;2022-08-19T12:42:22;101095.53;;;27.92;54.57
56400;BME280;42298;53.638;9.876;2022-08-19T12:44:48;101096.25;;;28.03;54.48
56400;BME280;42298;53.638;9.876;2022-08-19T12:47:13;101101.81;;;28.10;54.42
56400;BME280;42298;53.638;9.876;2022-08-19T12:49:42;101107.88;;;28.12;53.69
56400;BME280;42298;53.638;9.876;2022-08-19T12:52:09;101090.91;;;28.08;53.57
56400;BME280;42298;53.638;9.876;2022-08-19T12:54:36;101098.16;;;28.13;53.47
56400;BME280;42298;53.638;9.876;2022-08-19T12:57:07;101095.69;;;28.18;53.41
56400;BME280;42298;53.638;9.876;2022-08-19T12:59:34;101098.84;;;28.24;53.19
56400;BME280;42298;53.638;9.876;2022-08-19T13:02:00;101101.19;;;28.32;53.27